If you wish to contribute or participate in the discussions about articles you are invited to join SKYbrary as a registered user

 Actions

Alcantarilla Airport

From SKYbrary Wiki

LERI
Airport
ICAO: LERI
Summary
Name Alcantarilla Airport
Region Europe
Territory Spain ES.gif
Location
Serving Murcia
Elevation 76.2 m <br />250 ft <br />250 ft76.2 m <br />
Type medium airport
Coordinates 37° 57' 4.00" N, 1° 13' 49.15" W
Runways
Designator Length Width Surface ROPS
7/25 938 m3,077.428 ft <br /> 45 m147.638 ft <br /> ASP /


METAR
Observation LERI 221330Z 11005KT 070V140 9000 FEW020 BKN035 17/15 Q1015 NOSIG
Station Murcia / Alcantarilla
Date/Time 22 April 2021 13:30:00
Wind direction 110°
Wind speed 05 kts
Lowest cloud amount few clouds
Temperature 17°C
Dew point 15°C
Humidity 88%
QNH 1015 hPa
Weather condition n/a